sensor_id;sensor_type;location;lat;lon;timestamp;temperature;humidity
3816;DHT22;1923;48.154;11.536;2022-12-10T00:01:26;3.20;99.90
3816;DHT22;1923;48.154;11.536;2022-12-10T00:03:55;3.10;99.90
3816;DHT22;1923;48.154;11.536;2022-12-10T00:06:26;3.20;99.90
3816;DHT22;1923;48.154;11.536;2022-12-10T00:08:54;3.20;99.90
3816;DHT22;1923;48.154;11.536;2022-12-10T00:11:23;3.10;99.90
3816;DHT22;1923;48.154;11.536;2022-12-10T00:13:52;3.10;99.90
3816;DHT22;1923;48.154;11.536;2022-12-10T00:16:22;3.20;99.90
3816;DHT22;1923;48.154;11.536;2022-12-10T00:18:51;3.10;99.90
3816;DHT22;1923;48.154;11.536;2022-12-10T00:21:21;3.20;99.90
3816;DHT22;1923;48.154;11.536;2022-12-10T00:23:51;3.10;99.90
3816;DHT22;1923;48.154;11.536;2022-12-10T00:26:20;3.20;99.90
3816;DHT22;1923;48.154;11.536;2022-12-10T00:28:50;3.20;99.90
3816;DHT22;1923;48.154;11.536;2022-12-10T00:31:19;3.20;99.90
3816;DHT22;1923;48.154;11.536;2022-12-10T00:33:49;3.20;99.90
3816;DHT22;1923;48.154;11.536;2022-12-10T00:36:18;3.20;99.90
3816;DHT22;1923;48.154;11.536;2022-12-10T00:38:48;3.40;99.90
3816;DHT22;1923;48.154;11.536;2022-12-10T00:41:18;3.40;99.90
3816;DHT22;1923;48.154;11.536;2022-12-10T00:43:46;3.40;99.90
3816;DHT22;1923;48.154;11.536;2022-12-10T00:46:16;3.30;99.90
3816;DHT22;1923;48.154;11.536;2022-12-10T00:48:44;3.20;99.90
3816;DHT22;1923;48.154;11.536;2022-12-10T00:51:14;3.30;99.90
3816;DHT22;1923;48.154;11.536;2022-12-10T00:53:44;3.20;99.90
3816;DHT22;1923;48.154;11.536;2022-12-10T00:56:15;3.20;99.90
3816;DHT22;1923;48.154;11.536;2022-12-10T00:58:44;3.20;99.90
3816;DHT22;1923;48.154;11.536;2022-12-10T01:01:17;3.20;99.90
3816;DHT22;1923;48.154;11.536;2022-12-10T01:03:45;3.30;99.90
3816;DHT22;1923;48.154;11.536;2022-12-10T01:06:16;3.30;99.90
3816;DHT22;1923;48.154;11.536;2022-12-10T01:08:45;3.00;99.90
3816;DHT22;1923;48.154;11.536;2022-12-10T01:11:16;3.00;99.90
3816;DHT22;1923;48.154;11.536;2022-12-10T01:13:47;3.00;99.90
3816;DHT22;1923;48.154;11.536;2022-12-10T01:16:19;3.10;99.90
3816;DHT22;1923;48.154;11.536;2022-12-10T01:18:47;3.10;99.90
3816;DHT22;1923;48.154;11.536;2022-12-10T01:21:17;3.10;99.90
3816;DHT22;1923;48.154;11.536;2022-12-10T01:23:47;3.10;99.90
3816;DHT22;1923;48.154;11.536;2022-12-10T01:26:18;3.10;99.90
3816;DHT22;1923;48.154;11.536;2022-12-10T01:28:48;3.00;99.90
3816;DHT22;1923;48.154;11.536;2022-12-10T01:31:18;3.10;99.90
3816;DHT22;1923;48.154;11.536;2022-12-10T01:33:47;3.10;99.90
3816;DHT22;1923;48.154;11.536;2022-12-10T01:36:17;3.10;99.90
3816;DHT22;1923;48.154;11.536;2022-12-10T01:38:46;3.20;99.90
3816;DHT22;1923;48.154;11.536;2022-12-10T01:41:17;3.10;99.90
3816;DHT22;1923;48.154;11.536;2022-12-10T01:43:57;3.10;99.90
3816;DHT22;1923;48.154;11.536;2022-12-10T01:46:27;3.00;99.90
3816;DHT22;1923;48.154;11.536;2022-12-10T01:48:55;3.00;99.90
3816;DHT22;1923;48.154;11.536;2022-12-10T01:51:25;3.00;99.90
3816;DHT22;1923;48.154;11.536;2022-12-10T12:23:43;1.00;99.90
3816;DHT22;1923;48.154;11.536;2022-12-10T12:26:18;2.50;99.90
3816;DHT22;1923;48.154;11.536;2022-12-10T12:28:49;2.60;99.90
3816;DHT22;1923;48.154;11.536;2022-12-10T12:31:21;2.60;99.90
3816;DHT22;1923;48.154;11.536;2022-12-10T12:33:53;2.60;99.90
3816;DHT22;1923;48.154;11.536;2022-12-10T12:36:24;2.70;99.90
3816;DHT22;1923;48.154;11.536;2022-12-10T12:39:00;2.70;99.90
3816;DHT22;1923;48.154;11.536;2022-12-10T12:41:36;2.70;99.90
3816;DHT22;1923;48.154;11.536;2022-12-10T12:44:12;2.70;99.90
3816;DHT22;1923;48.154;11.536;2022-12-10T12:46:43;2.70;99.90
3816;DHT22;1923;48.154;11.536;2022-12-10T12:49:18;2.70;99.90
3816;DHT22;1923;48.154;11.536;2022-12-10T12:51:53;2.70;99.90
3816;DHT22;1923;48.154;11.536;2022-12-10T12:54:24;2.60;99.90
3816;DHT22;1923;48.154;11.536;2022-12-10T12:56:59;2.50;99.90
3816;DHT22;1923;48.154;11.536;2022-12-10T12:59:39;2.50;99.90
3816;DHT22;1923;48.154;11.536;2022-12-10T13:02:20;2.50;99.90
3816;DHT22;1923;48.154;11.536;2022-12-10T13:04:50;2.60;99.90
3816;DHT22;1923;48.154;11.536;2022-12-10T13:07:30;2.80;99.90
3816;DHT22;1923;48.154;11.536;2022-12-10T13:10:24;2.70;99.90
3816;DHT22;1923;48.154;11.536;2022-12-10T13:13:16;2.90;99.90
3816;DHT22;1923;48.154;11.536;2022-12-10T13:15:44;2.90;99.90
3816;DHT22;1923;48.154;11.536;2022-12-10T13:18:37;2.90;99.90
3816;DHT22;1923;48.154;11.536;2022-12-10T13:21:32;3.00;99.90
3816;DHT22;1923;48.154;11.536;2022-12-10T13:24:09;3.00;99.90
3816;DHT22;1923;48.154;11.536;2022-12-10T13:27:01;3.00;99.90
3816;DHT22;1923;48.154;11.536;2022-12-10T13:29:44;2.80;99.90
3816;DHT22;1923;48.154;11.536;2022-12-10T13:32:16;2.70;99.90
3816;DHT22;1923;48.154;11.536;2022-12-10T13:34:44;2.80;99.90
3816;DHT22;1923;48.154;11.536;2022-12-10T13:37:28;2.80;99.90
3816;DHT22;1923;48.154;11.536;2022-12-10T13:40:14;2.80;99.90
3816;DHT22;1923;48.154;11.536;2022-12-10T13:42:57;2.70;99.90
3816;DHT22;1923;48.154;11.536;2022-12-10T13:45:43;2.60;99.90
3816;DHT22;1923;48.154;11.536;2022-12-10T13:48:29;2.60;99.90
3816;DHT22;1923;48.154;11.536;2022-12-10T13:51:39;2.60;99.90
3816;DHT22;1923;48.154;11.536;2022-12-10T13:57:15;2.50;99.90
3816;DHT22;1923;48.154;11.536;2022-12-10T13:59:53;2.50;99.90
3816;DHT22;1923;48.154;11.536;2022-12-10T14:02:55;2.50;99.90
3816;DHT22;1923;48.154;11.536;2022-12-10T14:05:37;2.30;99.90
3816;DHT22;1923;48.154;11.536;2022-12-10T14:08:13;2.40;99.90
3816;DHT22;1923;48.154;11.536;2022-12-10T14:10:45;2.30;99.90
3816;DHT22;1923;48.154;11.536;2022-12-10T14:13:15;2.20;99.90
3816;DHT22;1923;48.154;11.536;2022-12-10T14:15:53;2.20;99.90
3816;DHT22;1923;48.154;11.536;2022-12-10T14:18:22;2.30;99.90
3816;DHT22;1923;48.154;11.536;2022-12-10T14:20:53;2.30;99.90
3816;DHT22;1923;48.154;11.536;2022-12-10T14:23:25;2.20;99.90
3816;DHT22;1923;48.154;11.536;2022-12-10T14:26:15;2.10;99.90
3816;DHT22;1923;48.154;11.536;2022-12-10T14:28:45;2.20;99.90
3816;DHT22;1923;48.154;11.536;2022-12-10T14:31:17;2.30;99.90
3816;DHT22;1923;48.154;11.536;2022-12-10T14:33:48;2.20;99.90
3816;DHT22;1923;48.154;11.536;2022-12-10T14:36:22;2.20;99.90
3816;DHT22;1923;48.154;11.536;2022-12-10T14:38:52;2.10;99.90
3816;DHT22;1923;48.154;11.536;2022-12-10T14:41:22;2.10;99.90
3816;DHT22;1923;48.154;11.536;2022-12-10T14:43:52;2.10;99.90
3816;DHT22;1923;48.154;11.536;2022-12-10T14:46:24;2.10;99.90
3816;DHT22;1923;48.154;11.536;2022-12-10T14:48:53;2.10;99.90
3816;DHT22;1923;48.154;11.536;2022-12-10T14:51:23;2.20;99.90
3816;DHT22;1923;48.154;11.536;2022-12-10T14:53:53;2.20;99.90
3816;DHT22;1923;48.154;11.536;2022-12-10T14:56:26;2.30;99.90
3816;DHT22;1923;48.154;11.536;2022-12-10T14:59:00;2.20;99.90
3816;DHT22;1923;48.154;11.536;2022-12-10T15:01:33;2.10;99.90
3816;DHT22;1923;48.154;11.536;2022-12-10T15:04:04;2.20;99.90
3816;DHT22;1923;48.154;11.536;2022-12-10T15:06:36;2.40;99.90
3816;DHT22;1923;48.154;11.536;2022-12-10T15:09:06;2.40;99.90
3816;DHT22;1923;48.154;11.536;2022-12-10T15:11:37;2.30;99.90
3816;DHT22;1923;48.154;11.536;2022-12-10T15:14:05;2.40;99.90
3816;DHT22;1923;48.154;11.536;2022-12-10T15:16:40;2.40;99.90
3816;DHT22;1923;48.154;11.536;2022-12-10T15:19:15;2.20;99.90
3816;DHT22;1923;48.154;11.536;2022-12-10T15:21:45;2.10;99.90
3816;DHT22;1923;48.154;11.536;2022-12-10T15:24:16;2.10;99.90
3816;DHT22;1923;48.154;11.536;2022-12-10T15:26:47;2.00;99.90
3816;DHT22;1923;48.154;11.536;2022-12-10T15:29:32;2.00;99.90
3816;DHT22;1923;48.154;11.536;2022-12-10T15:32:06;2.00;99.90
3816;DHT22;1923;48.154;11.536;2022-12-10T15:34:39;2.00;99.90
3816;DHT22;1923;48.154;11.536;2022-12-10T15:37:21;2.00;99.90
3816;DHT22;1923;48.154;11.536;2022-12-10T15:39:53;2.00;99.90
3816;DHT22;1923;48.154;11.536;2022-12-10T15:42:31;2.00;99.90
3816;DHT22;1923;48.154;11.536;2022-12-10T15:45:04;2.20;99.90
3816;DHT22;1923;48.154;11.536;2022-12-10T15:47:33;2.10;99.90
3816;DHT22;1923;48.154;11.536;2022-12-10T15:50:05;2.20;99.90
3816;DHT22;1923;48.154;11.536;2022-12-10T15:52:34;2.00;99.90
3816;DHT22;1923;48.154;11.536;2022-12-10T15:55:03;2.00;99.90
3816;DHT22;1923;48.154;11.536;2022-12-10T15:57:33;1.80;99.90
3816;DHT22;1923;48.154;11.536;2022-12-10T16:00:04;1.80;99.90
3816;DHT22;1923;48.154;11.536;2022-12-10T16:02:38;1.80;99.90
3816;DHT22;1923;48.154;11.536;2022-12-10T16:05:11;1.80;99.90
3816;DHT22;1923;48.154;11.536;2022-12-10T16:07:39;1.80;99.90
3816;DHT22;1923;48.154;11.536;2022-12-10T16:10:10;1.60;99.90
3816;DHT22;1923;48.154;11.536;2022-12-10T16:12:40;1.70;99.90
3816;DHT22;1923;48.154;11.536;2022-12-10T16:15:15;1.70;99.90
3816;DHT22;1923;48.154;11.536;2022-12-10T16:17:45;1.70;99.90
3816;DHT22;1923;48.154;11.536;2022-12-10T16:20:19;1.70;99.90
3816;DHT22;1923;48.154;11.536;2022-12-10T16:22:47;1.80;99.90
3816;DHT22;1923;48.154;11.536;2022-12-10T16:25:15;1.80;99.90
3816;DHT22;1923;48.154;11.536;2022-12-10T16:27:44;1.80;99.90
3816;DHT22;1923;48.154;11.536;2022-12-10T16:30:15;1.90;99.90
3816;DHT22;1923;48.154;11.536;2022-12-10T16:32:46;1.70;99.90
3816;DHT22;1923;48.154;11.536;2022-12-10T16:35:15;1.70;99.90
3816;DHT22;1923;48.154;11.536;2022-12-10T16:37:44;1.80;99.90
3816;DHT22;1923;48.154;11.536;2022-12-10T16:40:13;1.90;99.90
3816;DHT22;1923;48.154;11.536;2022-12-10T16:42:42;1.80;99.90
3816;DHT22;1923;48.154;11.536;2022-12-10T16:45:16;1.80;99.90
3816;DHT22;1923;48.154;11.536;2022-12-10T16:47:46;1.80;99.90
3816;DHT22;1923;48.154;11.536;2022-12-10T16:50:15;1.90;99.90
3816;DHT22;1923;48.154;11.536;2022-12-10T16:52:44;2.00;99.90
3816;DHT22;1923;48.154;11.536;2022-12-10T16:55:18;1.90;99.90
3816;DHT22;1923;48.154;11.536;2022-12-10T16:57:47;1.90;99.90
3816;DHT22;1923;48.154;11.536;2022-12-10T17:00:18;1.80;99.90
3816;DHT22;1923;48.154;11.536;2022-12-10T17:02:48;1.80;99.90
3816;DHT22;1923;48.154;11.536;2022-12-10T17:05:23;1.70;99.90
3816;DHT22;1923;48.154;11.536;2022-12-10T17:07:52;1.70;99.90
3816;DHT22;1923;48.154;11.536;2022-12-10T17:10:20;1.50;99.90
3816;DHT22;1923;48.154;11.536;2022-12-10T17:13:10;1.50;99.90
3816;DHT22;1923;48.154;11.536;2022-12-10T17:15:38;1.50;99.90
3816;DHT22;1923;48.154;11.536;2022-12-10T17:18:11;1.60;99.90
3816;DHT22;1923;48.154;11.536;2022-12-10T17:20:41;1.70;99.90
3816;DHT22;1923;48.154;11.536;2022-12-10T17:23:09;1.80;99.90
3816;DHT22;1923;48.154;11.536;2022-12-10T17:25:37;1.70;99.90
3816;DHT22;1923;48.154;11.536;2022-12-10T17:28:06;1.70;99.90
3816;DHT22;1923;48.154;11.536;2022-12-10T17:30:34;1.70;99.90
3816;DHT22;1923;48.154;11.536;2022-12-10T17:33:02;1.70;99.90
3816;DHT22;1923;48.154;11.536;2022-12-10T17:35:32;1.70;99.90
3816;DHT22;1923;48.154;11.536;2022-12-10T17:38:00;1.70;99.90
3816;DHT22;1923;48.154;11.536;2022-12-10T17:40:28;1.60;99.90
3816;DHT22;1923;48.154;11.536;2022-12-10T17:42:58;1.60;99.90
3816;DHT22;1923;48.154;11.536;2022-12-10T17:45:25;1.60;99.90
3816;DHT22;1923;48.154;11.536;2022-12-10T17:47:54;1.60;99.90
3816;DHT22;1923;48.154;11.536;2022-12-10T17:50:26;1.50;99.90
3816;DHT22;1923;48.154;11.536;2022-12-10T17:53:00;1.50;99.90
3816;DHT22;1923;48.154;11.536;2022-12-10T17:55:28;1.50;99.90
3816;DHT22;1923;48.154;11.536;2022-12-10T17:57:57;1.50;99.90
3816;DHT22;1923;48.154;11.536;2022-12-10T18:00:30;1.40;99.90
3816;DHT22;1923;48.154;11.536;2022-12-10T18:02:59;1.40;99.90
3816;DHT22;1923;48.154;11.536;2022-12-10T18:05:27;1.50;99.90
3816;DHT22;1923;48.154;11.536;2022-12-10T18:07:56;1.80;99.90
3816;DHT22;1923;48.154;11.536;2022-12-10T18:10:28;1.80;99.90
3816;DHT22;1923;48.154;11.536;2022-12-10T18:12:57;1.70;99.90
3816;DHT22;1923;48.154;11.536;2022-12-10T18:15:27;1.60;99.90
3816;DHT22;1923;48.154;11.536;2022-12-10T18:17:56;1.60;99.90
3816;DHT22;1923;48.154;11.536;2022-12-10T18:20:28;1.60;99.90
3816;DHT22;1923;48.154;11.536;2022-12-10T18:22:57;1.70;99.90
3816;DHT22;1923;48.154;11.536;2022-12-10T18:25:27;1.60;99.90
3816;DHT22;1923;48.154;11.536;2022-12-10T18:27:58;1.50;99.90
3816;DHT22;1923;48.154;11.536;2022-12-10T18:30:28;1.50;99.90
3816;DHT22;1923;48.154;11.536;2022-12-10T18:32:57;1.50;99.90
3816;DHT22;1923;48.154;11.536;2022-12-10T18:35:25;1.50;99.90
3816;DHT22;1923;48.154;11.536;2022-12-10T18:37:56;1.40;99.90
3816;DHT22;1923;48.154;11.536;2022-12-10T18:40:24;1.50;99.90
3816;DHT22;1923;48.154;11.536;2022-12-10T18:42:53;1.60;99.90
3816;DHT22;1923;48.154;11.536;2022-12-10T18:45:21;1.60;99.90
3816;DHT22;1923;48.154;11.536;2022-12-10T18:47:49;1.50;99.90
3816;DHT22;1923;48.154;11.536;2022-12-10T18:50:27;1.50;99.90
3816;DHT22;1923;48.154;11.536;2022-12-10T18:52:55;1.30;99.90
3816;DHT22;1923;48.154;11.536;2022-12-10T18:55:23;1.40;99.90
3816;DHT22;1923;48.154;11.536;2022-12-10T18:57:53;1.40;99.90
3816;DHT22;1923;48.154;11.536;2022-12-10T19:00:32;1.40;99.90
3816;DHT22;1923;48.154;11.536;2022-12-10T19:03:01;1.30;99.90
3816;DHT22;1923;48.154;11.536;2022-12-10T19:05:30;1.30;99.90
3816;DHT22;1923;48.154;11.536;2022-12-10T19:07:58;1.30;99.90
3816;DHT22;1923;48.154;11.536;2022-12-10T19:10:26;1.40;99.90
3816;DHT22;1923;48.154;11.536;2022-12-10T19:12:55;1.40;99.90
3816;DHT22;1923;48.154;11.536;2022-12-10T19:15:24;1.30;99.90
3816;DHT22;1923;48.154;11.536;2022-12-10T19:17:51;1.30;99.90
3816;DHT22;1923;48.154;11.536;2022-12-10T19:20:21;1.50;99.90
3816;DHT22;1923;48.154;11.536;2022-12-10T19:22:51;1.60;99.90
3816;DHT22;1923;48.154;11.536;2022-12-10T19:25:19;1.80;99.90
3816;DHT22;1923;48.154;11.536;2022-12-10T19:27:48;1.90;99.90
3816;DHT22;1923;48.154;11.536;2022-12-10T19:30:19;2.00;99.90
3816;DHT22;1923;48.154;11.536;2022-12-10T19:32:48;1.80;99.90
3816;DHT22;1923;48.154;11.536;2022-12-10T19:35:18;1.90;99.90
3816;DHT22;1923;48.154;11.536;2022-12-10T19:37:47;1.80;99.90
3816;DHT22;1923;48.154;11.536;2022-12-10T19:40:25;1.70;99.90
3816;DHT22;1923;48.154;11.536;2022-12-10T19:42:55;1.80;99.90
3816;DHT22;1923;48.154;11.536;2022-12-10T19:45:25;1.70;99.90
3816;DHT22;1923;48.154;11.536;2022-12-10T19:47:54;1.60;99.90
3816;DHT22;1923;48.154;11.536;2022-12-10T19:50:25;1.60;99.90
3816;DHT22;1923;48.154;11.536;2022-12-10T19:52:54;1.50;99.90
3816;DHT22;1923;48.154;11.536;2022-12-10T19:55:22;1.50;99.90
3816;DHT22;1923;48.154;11.536;2022-12-10T19:57:51;1.50;99.90
3816;DHT22;1923;48.154;11.536;2022-12-10T20:00:21;1.40;99.90
3816;DHT22;1923;48.154;11.536;2022-12-10T20:02:51;1.50;99.90
3816;DHT22;1923;48.154;11.536;2022-12-10T20:05:19;1.70;99.90
3816;DHT22;1923;48.154;11.536;2022-12-10T20:07:48;1.70;99.90
3816;DHT22;1923;48.154;11.536;2022-12-10T20:10:19;1.60;99.90
3816;DHT22;1923;48.154;11.536;2022-12-10T20:12:49;1.50;99.90
3816;DHT22;1923;48.154;11.536;2022-12-10T20:15:18;1.50;99.90
3816;DHT22;1923;48.154;11.536;2022-12-10T20:17:46;1.60;99.90
3816;DHT22;1923;48.154;11.536;2022-12-10T20:20:17;1.60;99.90
3816;DHT22;1923;48.154;11.536;2022-12-10T20:22:46;1.50;99.90
3816;DHT22;1923;48.154;11.536;2022-12-10T20:25:15;1.50;99.90
3816;DHT22;1923;48.154;11.536;2022-12-10T20:27:44;1.60;99.90
3816;DHT22;1923;48.154;11.536;2022-12-10T20:30:23;1.50;99.90
3816;DHT22;1923;48.154;11.536;2022-12-10T20:32:54;1.50;99.90
3816;DHT22;1923;48.154;11.536;2022-12-10T20:35:23;1.50;99.90
3816;DHT22;1923;48.154;11.536;2022-12-10T20:37:52;1.50;99.90
3816;DHT22;1923;48.154;11.536;2022-12-10T20:40:21;1.50;99.90
3816;DHT22;1923;48.154;11.536;2022-12-10T20:42:59;1.30;99.90
3816;DHT22;1923;48.154;11.536;2022-12-10T20:45:27;1.20;99.90
3816;DHT22;1923;48.154;11.536;2022-12-10T20:47:56;1.30;99.90
3816;DHT22;1923;48.154;11.536;2022-12-10T20:50:26;1.20;99.90
3816;DHT22;1923;48.154;11.536;2022-12-10T20:52:54;1.20;99.90
3816;DHT22;1923;48.154;11.536;2022-12-10T20:55:22;1.20;99.90
3816;DHT22;1923;48.154;11.536;2022-12-10T20:57:50;1.20;99.90
3816;DHT22;1923;48.154;11.536;2022-12-10T21:00:20;1.20;99.90
3816;DHT22;1923;48.154;11.536;2022-12-10T21:02:48;1.10;99.90
3816;DHT22;1923;48.154;11.536;2022-12-10T21:05:18;1.20;99.90
3816;DHT22;1923;48.154;11.536;2022-12-10T21:07:48;1.30;99.90
3816;DHT22;1923;48.154;11.536;2022-12-10T21:10:18;1.30;99.90
3816;DHT22;1923;48.154;11.536;2022-12-10T21:13:01;1.20;99.90
3816;DHT22;1923;48.154;11.536;2022-12-10T21:15:29;1.20;99.90
3816;DHT22;1923;48.154;11.536;2022-12-10T21:17:57;1.20;99.90
3816;DHT22;1923;48.154;11.536;2022-12-10T21:20:25;1.20;99.90
3816;DHT22;1923;48.154;11.536;2022-12-10T21:22:56;1.20;99.90
3816;DHT22;1923;48.154;11.536;2022-12-10T21:25:24;1.20;99.90
3816;DHT22;1923;48.154;11.536;2022-12-10T21:27:52;1.20;99.90
3816;DHT22;1923;48.154;11.536;2022-12-10T21:30:20;1.30;99.90
3816;DHT22;1923;48.154;11.536;2022-12-10T21:32:48;1.30;99.90
3816;DHT22;1923;48.154;11.536;2022-12-10T21:35:16;1.20;99.90
3816;DHT22;1923;48.154;11.536;2022-12-10T21:37:44;1.10;99.90
3816;DHT22;1923;48.154;11.536;2022-12-10T21:40:14;1.20;99.90
3816;DHT22;1923;48.154;11.536;2022-12-10T21:42:42;1.40;99.90
3816;DHT22;1923;48.154;11.536;2022-12-10T21:45:29;1.40;99.90
3816;DHT22;1923;48.154;11.536;2022-12-10T21:47:59;1.30;99.90
3816;DHT22;1923;48.154;11.536;2022-12-10T21:50:28;1.30;99.90
3816;DHT22;1923;48.154;11.536;2022-12-10T21:52:56;1.20;99.90
3816;DHT22;1923;48.154;11.536;2022-12-10T21:55:26;1.20;99.90
3816;DHT22;1923;48.154;11.536;2022-12-10T21:57:56;1.40;99.90
3816;DHT22;1923;48.154;11.536;2022-12-10T22:00:25;1.20;99.90
3816;DHT22;1923;48.154;11.536;2022-12-10T22:02:53;1.10;99.90
3816;DHT22;1923;48.154;11.536;2022-12-10T22:05:22;1.00;99.90
3816;DHT22;1923;48.154;11.536;2022-12-10T22:07:50;1.00;99.90
3816;DHT22;1923;48.154;11.536;2022-12-10T22:10:18;1.00;99.90
3816;DHT22;1923;48.154;11.536;2022-12-10T22:12:48;1.00;99.90
3816;DHT22;1923;48.154;11.536;2022-12-10T22:15:16;1.00;99.90
3816;DHT22;1923;48.154;11.536;2022-12-10T22:17:44;0.90;99.90
3816;DHT22;1923;48.154;11.536;2022-12-10T22:20:12;0.90;99.90
3816;DHT22;1923;48.154;11.536;2022-12-10T22:22:40;0.90;99.90
3816;DHT22;1923;48.154;11.536;2022-12-10T22:25:08;1.10;99.90
3816;DHT22;1923;48.154;11.536;2022-12-10T22:27:36;1.20;99.90
3816;DHT22;1923;48.154;11.536;2022-12-10T22:30:07;1.10;99.90
3816;DHT22;1923;48.154;11.536;2022-12-10T22:32:35;1.00;99.90
3816;DHT22;1923;48.154;11.536;2022-12-10T22:35:05;0.90;99.90
3816;DHT22;1923;48.154;11.536;2022-12-10T22:37:34;1.00;99.90
3816;DHT22;1923;48.154;11.536;2022-12-10T22:40:03;1.00;99.90
3816;DHT22;1923;48.154;11.536;2022-12-10T22:42:32;1.00;99.90
3816;DHT22;1923;48.154;11.536;2022-12-10T22:45:01;1.00;99.90
3816;DHT22;1923;48.154;11.536;2022-12-10T22:47:30;1.10;99.90
3816;DHT22;1923;48.154;11.536;2022-12-10T22:49:58;1.10;99.90
3816;DHT22;1923;48.154;11.536;2022-12-10T22:52:27;1.10;99.90
3816;DHT22;1923;48.154;11.536;2022-12-10T22:54:56;1.00;99.90
3816;DHT22;1923;48.154;11.536;2022-12-10T22:57:26;1.00;99.90
3816;DHT22;1923;48.154;11.536;2022-12-10T22:59:58;1.10;99.90
3816;DHT22;1923;48.154;11.536;2022-12-10T23:02:26;1.10;99.90
3816;DHT22;1923;48.154;11.536;2022-12-10T23:04:56;1.10;99.90
3816;DHT22;1923;48.154;11.536;2022-12-10T23:07:24;1.20;99.90
3816;DHT22;1923;48.154;11.536;2022-12-10T23:09:52;1.20;99.90
3816;DHT22;1923;48.154;11.536;2022-12-10T23:12:20;1.20;99.90
3816;DHT22;1923;48.154;11.536;2022-12-10T23:15:07;1.20;99.90
3816;DHT22;1923;48.154;11.536;2022-12-10T23:17:35;1.10;99.90
3816;DHT22;1923;48.154;11.536;2022-12-10T23:20:05;1.10;99.90
3816;DHT22;1923;48.154;11.536;2022-12-10T23:22:34;1.10;99.90
3816;DHT22;1923;48.154;11.536;2022-12-10T23:25:02;1.10;99.90
3816;DHT22;1923;48.154;11.536;2022-12-10T23:27:31;1.20;99.90
3816;DHT22;1923;48.154;11.536;2022-12-10T23:29:59;1.20;99.90
3816;DHT22;1923;48.154;11.536;2022-12-10T23:32:27;1.20;99.90
3816;DHT22;1923;48.154;11.536;2022-12-10T23:34:55;1.10;99.90
3816;DHT22;1923;48.154;11.536;2022-12-10T23:37:24;1.20;99.90
3816;DHT22;1923;48.154;11.536;2022-12-10T23:39:53;1.00;99.90
3816;DHT22;1923;48.154;11.536;2022-12-10T23:42:21;0.80;99.90
3816;DHT22;1923;48.154;11.536;2022-12-10T23:44:52;0.80;99.90
3816;DHT22;1923;48.154;11.536;2022-12-10T23:47:20;0.80;99.90
3816;DHT22;1923;48.154;11.536;2022-12-10T23:49:48;0.70;99.90
3816;DHT22;1923;48.154;11.536;2022-12-10T23:52:17;0.70;99.90
3816;DHT22;1923;48.154;11.536;2022-12-10T23:54:46;0.80;99.90
3816;DHT22;1923;48.154;11.536;2022-12-10T23:57:14;0.70;99.90
3816;DHT22;1923;48.154;11.536;2022-12-10T23:59:42;0.80;99.90
